createdAt,value
2022-08-07T00:02:35.598Z,85.90
2022-08-07T00:04:11.173Z,86.00
2022-08-07T00:06:51.433Z,86.00
2022-08-07T00:09:22.513Z,85.90
2022-08-07T00:11:55.821Z,86.00
2022-08-07T00:14:29.863Z,86.00
2022-08-07T00:16:59.466Z,86.00
2022-08-07T00:19:59.892Z,86.00
2022-08-07T00:22:24.894Z,86.10
2022-08-07T00:25:05.306Z,86.20
2022-08-07T00:27:52.626Z,86.20
2022-08-07T00:30:27.400Z,86.10
2022-08-07T00:32:58.291Z,86.20
2022-08-07T00:35:29.976Z,86.30
2022-08-07T00:37:58.883Z,86.20
2022-08-07T00:40:39.006Z,86.30
2022-08-07T00:43:09.746Z,86.20
2022-08-07T00:45:39.403Z,86.20
2022-08-07T00:48:10.876Z,86.10
2022-08-07T00:50:50.210Z,86.20
2022-08-07T00:53:20.641Z,86.10
2022-08-07T00:56:00.698Z,86.20
2022-08-07T00:58:32.657Z,86.30
2022-08-07T01:01:01.449Z,86.30
2022-08-07T01:03:55.675Z,86.30
2022-08-07T01:06:21.925Z,86.40
2022-08-07T01:08:53.883Z,86.50
2022-08-07T01:12:09.035Z,86.30
2022-08-07T01:14:15.518Z,86.40
2022-08-07T01:16:47.230Z,86.50
2022-08-07T01:19:19.120Z,86.50
2022-08-07T01:21:53.369Z,86.70
2022-08-07T01:24:24.268Z,86.90
2022-08-07T01:26:53.939Z,87.00
2022-08-07T01:29:27.694Z,87.00
2022-08-07T01:31:59.976Z,87.10
2022-08-07T01:34:31.581Z,87.20
2022-08-07T01:37:03.056Z,87.20
2022-08-07T01:39:40.403Z,87.30
2022-08-07T01:42:39.887Z,87.50
2022-08-07T01:45:09.793Z,87.60
2022-08-07T01:48:18.253Z,87.60
2022-08-07T01:50:33.949Z,87.60
2022-08-07T01:53:08.676Z,87.70
2022-08-07T01:55:42.023Z,87.80
2022-08-07T01:58:29.667Z,88.00
2022-08-07T02:01:25.387Z,88.30
2022-08-07T02:04:02.438Z,88.40
2022-08-07T02:06:35.645Z,88.40
2022-08-07T02:09:09.000Z,88.50
2022-08-07T02:12:03.288Z,88.80
2022-08-07T02:14:41.069Z,89.00
2022-08-07T02:17:11.376Z,89.10
2022-08-07T02:20:07.525Z,89.30
2022-08-07T02:22:32.246Z,89.40
2022-08-07T02:25:07.041Z,89.40
2022-08-07T02:27:41.158Z,89.50
2022-08-07T02:30:12.445Z,89.50
2022-08-07T02:33:00.565Z,89.50
2022-08-07T02:36:26.818Z,89.40
2022-08-07T02:38:31.748Z,89.30
2022-08-07T02:41:03.767Z,89.30
2022-08-07T02:43:34.565Z,89.20
2022-08-07T02:46:06.052Z,89.20
2022-08-07T02:48:34.825Z,89.10
2022-08-07T02:51:29.266Z,88.90
2022-08-07T02:53:59.191Z,88.90
2022-08-07T02:56:33.152Z,88.80
2022-08-07T02:59:05.772Z,88.80
2022-08-07T03:01:36.034Z,88.70
2022-08-07T03:04:07.739Z,88.80
2022-08-07T03:06:42.038Z,88.90
2022-08-07T03:09:13.764Z,88.90
2022-08-07T03:11:51.606Z,88.90
2022-08-07T03:14:27.903Z,88.90
2022-08-07T03:16:57.311Z,88.90
2022-08-07T03:19:28.869Z,88.90
2022-08-07T03:21:58.717Z,88.90
2022-08-07T03:24:28.111Z,88.80
2022-08-07T03:27:01.479Z,88.60
2022-08-07T03:29:36.658Z,88.60
2022-08-07T03:32:12.957Z,88.50
2022-08-07T03:34:47.212Z,88.20
2022-08-07T03:37:32.786Z,88.20
2022-08-07T03:40:16.914Z,88.20
2022-08-07T03:42:49.357Z,87.90
2022-08-07T03:45:30.449Z,87.70
2022-08-07T03:48:00.888Z,87.50
2022-08-07T03:50:30.652Z,87.40
2022-08-07T03:53:00.455Z,87.60
2022-08-07T03:55:58.045Z,87.60
2022-08-07T03:59:05.757Z,87.70
2022-08-07T04:01:13.832Z,87.60
2022-08-07T04:03:53.735Z,87.40
2022-08-07T04:06:37.760Z,87.40
2022-08-07T04:09:08.411Z,87.30
2022-08-07T04:12:25.107Z,87.30
2022-08-07T04:14:37.739Z,87.20
2022-08-07T04:17:20.066Z,87.30
2022-08-07T04:19:52.651Z,87.30
2022-08-07T04:22:29.479Z,87.50
2022-08-07T04:25:01.465Z,87.70
2022-08-07T04:27:35.768Z,87.70
2022-08-07T04:30:35.649Z,88.00
2022-08-07T04:33:00.140Z,88.00
2022-08-07T04:35:35.094Z,88.10
2022-08-07T04:38:07.980Z,88.20
2022-08-07T04:40:36.674Z,88.80
2022-08-07T04:44:12.165Z,88.60
2022-08-07T04:46:25.712Z,88.50
2022-08-07T04:49:17.524Z,88.30
2022-08-07T04:51:57.440Z,88.40
2022-08-07T04:54:33.479Z,88.40
2022-08-07T04:58:13.069Z,88.00
2022-08-07T05:00:09.694Z,88.00
2022-08-07T05:02:49.917Z,88.70
2022-08-07T05:05:53.175Z,88.00
2022-08-07T05:08:59.713Z,88.00
2022-08-07T05:11:19.134Z,88.00
2022-08-07T05:14:52.379Z,88.00
2022-08-07T05:16:52.701Z,88.00
2022-08-07T05:19:44.158Z,88.00
2022-08-07T05:22:26.694Z,88.00
2022-08-07T05:24:59.504Z,88.80
2022-08-07T05:28:03.370Z,88.00
2022-08-07T05:30:30.169Z,88.00
2022-08-07T05:33:03.376Z,88.00
2022-08-07T05:35:41.582Z,88.00
2022-08-07T05:38:12.060Z,88.00
2022-08-07T05:40:50.276Z,88.00
2022-08-07T05:43:43.438Z,88.20
2022-08-07T05:46:08.906Z,88.30
2022-08-07T05:48:57.986Z,88.20
2022-08-07T05:51:31.430Z,88.00
2022-08-07T05:54:13.548Z,88.00
2022-08-07T05:56:51.364Z,88.20
2022-08-07T05:59:22.348Z,88.30
2022-08-07T06:01:52.461Z,88.00
2022-08-07T06:04:26.336Z,88.10
2022-08-07T06:07:04.467Z,88.10
2022-08-07T06:09:44.900Z,88.10
2022-08-07T06:12:31.775Z,88.00
2022-08-07T06:15:05.175Z,88.00
2022-08-07T06:17:37.521Z,88.00
2022-08-07T06:20:12.812Z,88.10
2022-08-07T06:23:02.105Z,87.80
2022-08-07T06:25:54.462Z,87.70
2022-08-07T06:28:27.681Z,87.80
2022-08-07T06:30:58.257Z,87.70
2022-08-07T06:33:29.561Z,87.70
2022-08-07T06:36:06.871Z,87.80
2022-08-07T06:38:58.751Z,87.50
2022-08-07T06:42:01.226Z,87.30
2022-08-07T06:44:26.336Z,87.30
2022-08-07T06:47:10.507Z,87.20
2022-08-07T06:49:52.261Z,87.00
2022-08-07T06:52:35.496Z,87.10
2022-08-07T06:55:34.342Z,87.10
2022-08-07T06:58:02.336Z,87.30
2022-08-07T07:00:36.754Z,87.30
2022-08-07T07:03:08.487Z,87.60
2022-08-07T07:06:05.632Z,87.60
2022-08-07T07:08:31.097Z,87.80
2022-08-07T07:11:13.465Z,87.90
2022-08-07T07:13:58.293Z,88.10
2022-08-07T07:16:45.129Z,88.00
2022-08-07T07:19:57.626Z,88.10
2022-08-07T07:22:36.622Z,88.00
2022-08-07T07:26:33.145Z,87.80
2022-08-07T07:28:02.610Z,87.70
2022-08-07T07:30:39.669Z,87.80
2022-08-07T07:33:12.253Z,87.50
2022-08-07T07:36:04.656Z,87.50
2022-08-07T07:38:36.089Z,87.40
2022-08-07T07:41:08.817Z,87.60
2022-08-07T07:44:13.873Z,87.60
2022-08-07T07:46:36.587Z,87.20
2022-08-07T07:50:35.973Z,87.10
2022-08-07T07:52:13.334Z,87.10
2022-08-07T07:54:51.139Z,87.20
2022-08-07T07:57:44.363Z,86.80
2022-08-07T08:00:21.222Z,86.90
2022-08-07T08:03:06.709Z,87.00
2022-08-07T08:05:51.002Z,86.70
2022-08-07T08:08:36.160Z,86.60
2022-08-07T08:11:09.334Z,86.50
2022-08-07T08:13:55.419Z,86.70
2022-08-07T08:16:31.192Z,86.90
2022-08-07T08:19:09.651Z,87.10
2022-08-07T08:22:08.129Z,86.90
2022-08-07T08:25:18.123Z,87.00
2022-08-07T08:27:57.424Z,86.90
2022-08-07T08:30:37.407Z,87.20
2022-08-07T08:33:15.272Z,87.30
2022-08-07T08:35:50.683Z,87.50
2022-08-07T08:38:22.004Z,87.60
2022-08-07T08:41:03.834Z,88.60
2022-08-07T08:43:42.339Z,87.80
2022-08-07T08:46:20.414Z,87.80
2022-08-07T08:48:59.515Z,87.60
2022-08-07T08:52:01.109Z,87.60
2022-08-07T08:54:26.466Z,87.60
2022-08-07T08:56:55.975Z,87.10
2022-08-07T08:59:30.543Z,87.10
2022-08-07T09:02:19.030Z,87.10
2022-08-07T09:05:26.390Z,87.10
2022-08-07T09:08:12.525Z,87.20
2022-08-07T09:11:03.129Z,87.10
2022-08-07T09:13:40.648Z,86.90
2022-08-07T09:16:25.379Z,87.30
2022-08-07T09:19:51.773Z,87.40
2022-08-07T09:24:29.003Z,87.30
2022-08-07T09:25:17.445Z,87.50
2022-08-07T09:28:01.150Z,87.60
2022-08-07T09:30:44.262Z,87.70
2022-08-07T09:33:41.247Z,87.80
2022-08-07T09:36:22.822Z,87.70
2022-08-07T09:39:27.316Z,87.30
2022-08-07T09:42:09.182Z,87.40
2022-08-07T09:47:24.371Z,87.40
2022-08-07T09:47:59.954Z,86.70
2022-08-07T09:50:43.277Z,86.80
2022-08-07T09:53:14.421Z,86.60
2022-08-07T09:56:03.326Z,86.00
2022-08-07T09:59:14.044Z,85.50
2022-08-07T10:02:03.181Z,85.00
2022-08-07T10:05:00.449Z,85.00
2022-08-07T10:08:01.033Z,84.80
2022-08-07T10:11:59.391Z,85.00
2022-08-07T10:14:00.510Z,84.80
2022-08-07T10:17:01.153Z,85.00
2022-08-07T10:20:07.112Z,85.40
2022-08-07T10:22:58.743Z,85.70
2022-08-07T10:25:43.151Z,85.80
2022-08-07T10:28:49.719Z,86.00
2022-08-07T10:31:39.447Z,86.20
2022-08-07T10:34:32.128Z,86.40
2022-08-07T10:37:15.348Z,86.80
2022-08-07T10:40:05.332Z,87.20
2022-08-07T10:42:41.403Z,87.20
2022-08-07T10:45:19.731Z,87.50
2022-08-07T10:48:20.569Z,87.50
2022-08-07T10:50:53.382Z,87.60
2022-08-07T10:53:44.326Z,87.60
2022-08-07T10:56:31.210Z,87.40
2022-08-07T10:59:13.475Z,87.40
2022-08-07T11:02:05.023Z,87.60
2022-08-07T11:05:03.183Z,87.70
2022-08-07T11:07:59.237Z,87.60
2022-08-07T11:10:34.935Z,87.30
2022-08-07T11:13:16.818Z,87.10
2022-08-07T11:16:07.295Z,86.90
2022-08-07T11:18:40.604Z,86.70
2022-08-07T11:21:19.967Z,86.60
2022-08-07T11:23:59.086Z,86.60
2022-08-07T11:26:34.903Z,86.10
2022-08-07T11:29:13.334Z,85.70
2022-08-07T11:32:07.139Z,85.60
2022-08-07T11:34:42.646Z,84.80
2022-08-07T11:37:57.289Z,84.50
2022-08-07T11:40:22.990Z,84.20
2022-08-07T11:43:02.223Z,84.60
2022-08-07T11:45:38.509Z,84.70
2022-08-07T11:48:31.666Z,84.80
2022-08-07T11:51:41.904Z,84.30
2022-08-07T11:54:32.967Z,84.10
2022-08-07T11:57:14.188Z,84.40
2022-08-07T12:00:11.374Z,84.40
2022-08-07T12:03:41.305Z,84.20
2022-08-07T12:06:37.033Z,84.00
2022-08-07T12:09:23.650Z,83.70
2022-08-07T12:12:09.562Z,83.70
2022-08-07T12:14:55.351Z,83.60
2022-08-07T12:17:33.685Z,83.20
2022-08-07T12:20:20.955Z,83.20
2022-08-07T12:24:04.936Z,83.20
2022-08-07T12:26:30.916Z,82.60
2022-08-07T12:29:14.172Z,82.40
2022-08-07T12:31:53.054Z,82.60
2022-08-07T12:34:33.794Z,82.50
2022-08-07T12:37:08.751Z,82.70
2022-08-07T12:39:54.150Z,82.90
2022-08-07T12:42:32.206Z,82.60
2022-08-07T12:45:06.945Z,82.40
2022-08-07T12:47:43.240Z,81.90
2022-08-07T12:50:38.992Z,82.30
2022-08-07T12:53:17.799Z,81.90
2022-08-07T12:56:03.631Z,81.60
2022-08-07T12:58:39.631Z,80.90
2022-08-07T13:01:18.910Z,80.90
2022-08-07T13:04:05.067Z,80.90
2022-08-07T13:06:58.877Z,81.00
2022-08-07T13:10:29.140Z,81.30
2022-08-07T13:12:51.828Z,81.50
2022-08-07T13:15:35.602Z,81.60
2022-08-07T13:18:26.510Z,81.80
2022-08-07T13:21:03.663Z,81.90
2022-08-07T13:24:00.788Z,82.00
2022-08-07T13:26:36.608Z,82.00
2022-08-07T13:29:13.847Z,81.60
2022-08-07T13:31:57.508Z,81.80
2022-08-07T13:34:38.908Z,81.80
2022-08-07T13:37:20.734Z,81.90
2022-08-07T13:40:35.588Z,82.10
2022-08-07T13:42:53.824Z,82.10
2022-08-07T13:46:21.799Z,81.90
2022-08-07T13:48:27.827Z,81.90
2022-08-07T13:51:28.384Z,82.00
2022-08-07T13:54:00.625Z,81.90
2022-08-07T13:56:36.256Z,81.90
2022-08-07T13:59:15.785Z,81.80
2022-08-07T14:01:59.274Z,81.90
2022-08-07T14:04:49.677Z,81.90
2022-08-07T14:07:22.987Z,82.70
2022-08-07T14:10:12.412Z,82.00
2022-08-07T14:12:54.984Z,82.30
2022-08-07T14:15:36.883Z,82.30
2022-08-07T14:18:23.521Z,82.30
2022-08-07T14:21:11.885Z,82.60
2022-08-07T14:24:00.860Z,82.90
2022-08-07T14:26:40.726Z,82.90
2022-08-07T14:30:07.162Z,83.00
2022-08-07T14:32:13.632Z,83.00
2022-08-07T14:34:45.605Z,83.10
2022-08-07T14:37:19.413Z,83.30
2022-08-07T14:40:16.275Z,83.40
2022-08-07T14:43:54.927Z,83.60
2022-08-07T14:45:48.675Z,83.60
2022-08-07T14:51:16.028Z,83.70
2022-08-07T14:56:43.651Z,83.60
2022-08-07T15:00:04.921Z,83.60
2022-08-07T15:02:31.700Z,83.50
2022-08-07T15:07:52.346Z,83.20
2022-08-07T15:10:26.459Z,83.20
2022-08-07T15:12:59.309Z,83.10
2022-08-07T15:15:38.645Z,83.20
2022-08-07T15:27:15.496Z,83.40
2022-08-07T15:30:06.772Z,83.40
2022-08-07T15:33:01.269Z,83.50
2022-08-07T15:36:00.867Z,83.80
2022-08-07T15:38:30.282Z,83.70
2022-08-07T15:41:23.771Z,83.60
2022-08-07T15:44:07.225Z,83.60
2022-08-07T15:46:52.071Z,83.60
2022-08-07T15:50:05.972Z,83.80
2022-08-07T15:52:29.677Z,84.00
2022-08-07T15:55:02.444Z,84.10
2022-08-07T15:57:41.129Z,84.30
2022-08-07T16:00:31.487Z,84.40
2022-08-07T16:03:04.333Z,84.50
2022-08-07T16:05:33.792Z,84.70
2022-08-07T16:08:31.007Z,84.70
2022-08-07T16:11:03.049Z,84.80
2022-08-07T16:13:59.128Z,84.70
2022-08-07T16:16:51.238Z,84.70
2022-08-07T16:19:58.442Z,84.70
2022-08-07T16:22:55.200Z,84.80
2022-08-07T16:25:54.251Z,84.80
2022-08-07T16:30:07.734Z,84.70
2022-08-07T16:31:58.605Z,84.50
2022-08-07T16:34:40.274Z,84.30
2022-08-07T16:38:06.694Z,84.20
2022-08-07T16:40:57.273Z,84.00
2022-08-07T16:44:06.331Z,83.90
2022-08-07T16:47:13.060Z,83.90
2022-08-07T16:50:37.419Z,83.60
2022-08-07T16:54:01.941Z,83.50
2022-08-07T16:56:27.265Z,83.30
2022-08-07T16:59:11.316Z,83.30
2022-08-07T17:02:14.276Z,83.20
2022-08-07T17:05:15.182Z,83.20
2022-08-07T17:08:02.089Z,83.30
2022-08-07T17:10:38.513Z,83.10
2022-08-07T17:13:41.732Z,83.90
2022-08-07T17:16:27.191Z,83.20
2022-08-07T17:19:05.612Z,83.20
2022-08-07T17:21:51.824Z,82.80
2022-08-07T17:24:32.752Z,82.90
2022-08-07T17:27:08.507Z,83.00
2022-08-07T17:30:13.970Z,83.00
2022-08-07T17:32:54.043Z,82.90
2022-08-07T17:35:51.557Z,82.80
2022-08-07T17:38:33.589Z,82.70
2022-08-07T17:42:01.042Z,82.80
2022-08-07T17:44:08.365Z,82.80
2022-08-07T17:46:52.534Z,82.90
2022-08-07T17:49:26.031Z,83.10
2022-08-07T17:52:02.822Z,83.10
2022-08-07T17:54:54.004Z,83.00
2022-08-07T17:57:58.584Z,83.00
2022-08-07T18:00:33.375Z,83.30
2022-08-07T18:03:18.261Z,83.40
2022-08-07T18:06:01.773Z,83.60
2022-08-07T18:08:49.302Z,83.70
2022-08-07T18:12:08.250Z,83.80
2022-08-07T18:14:29.062Z,83.90
2022-08-07T18:17:05.356Z,83.80
2022-08-07T18:21:08.514Z,84.00
2022-08-07T18:22:33.898Z,84.10
2022-08-07T18:25:23.885Z,84.20
2022-08-07T18:28:34.156Z,84.40
2022-08-07T18:31:10.111Z,84.50
2022-08-07T18:33:58.353Z,84.70
2022-08-07T18:36:41.038Z,84.80
2022-08-07T18:40:07.443Z,84.70
2022-08-07T18:42:21.408Z,84.80
2022-08-07T18:45:43.341Z,84.70
2022-08-07T18:48:01.313Z,84.50
2022-08-07T18:50:49.585Z,84.50
2022-08-07T18:53:39.288Z,84.60
2022-08-07T18:56:16.067Z,84.80
2022-08-07T18:59:03.775Z,84.80
2022-08-07T19:02:32.334Z,84.80
2022-08-07T19:04:57.640Z,84.70
2022-08-07T19:07:35.028Z,84.60
2022-08-07T19:10:18.172Z,84.40
2022-08-07T19:12:59.410Z,84.40
2022-08-07T19:16:05.678Z,84.50
2022-08-07T19:18:44.826Z,84.30
2022-08-07T19:21:45.095Z,84.50
2022-08-07T19:24:30.971Z,84.50
2022-08-07T19:28:29.492Z,84.60
2022-08-07T19:30:58.703Z,84.60
2022-08-07T19:32:59.179Z,84.60
2022-08-07T19:35:33.354Z,84.50
2022-08-07T19:38:15.109Z,84.60
2022-08-07T19:40:49.934Z,84.60
2022-08-07T19:43:43.366Z,84.70
2022-08-07T19:46:12.674Z,84.60
2022-08-07T19:48:54.111Z,84.80
2022-08-07T19:51:53.163Z,84.80
2022-08-07T19:54:34.444Z,84.80
2022-08-07T19:58:04.557Z,84.70
2022-08-07T20:00:00.065Z,84.70
2022-08-07T20:02:34.659Z,84.70
2022-08-07T20:05:08.010Z,84.60
2022-08-07T20:07:47.186Z,84.50
2022-08-07T20:10:37.773Z,84.40
2022-08-07T20:13:15.808Z,84.40
2022-08-07T20:15:53.742Z,84.50
2022-08-07T20:18:31.954Z,84.60
2022-08-07T20:21:21.132Z,84.50
2022-08-07T20:23:57.670Z,84.40
2022-08-07T20:26:32.468Z,84.20
2022-08-07T20:29:16.943Z,84.20
2022-08-07T20:32:02.675Z,84.30
2022-08-07T20:34:50.205Z,84.50
2022-08-07T20:37:26.493Z,84.70
2022-08-07T20:40:03.035Z,84.70
2022-08-07T20:42:34.660Z,84.90
2022-08-07T20:45:32.668Z,85.00
2022-08-07T20:47:58.458Z,85.00
2022-08-07T20:50:30.641Z,85.10
2022-08-07T20:53:01.007Z,85.00
2022-08-07T20:55:32.285Z,85.00
2022-08-07T20:58:11.792Z,85.10
2022-08-07T21:00:46.430Z,84.70
2022-08-07T21:03:19.201Z,84.60
2022-08-07T21:06:03.662Z,84.50
2022-08-07T21:09:01.843Z,84.30
2022-08-07T21:11:46.050Z,84.20
2022-08-07T21:14:33.816Z,84.20
2022-08-07T21:18:01.245Z,84.30
2022-08-07T21:20:04.685Z,84.50
2022-08-07T21:22:35.879Z,85.10
2022-08-07T21:25:13.393Z,85.10
2022-08-07T21:28:02.164Z,84.90
2022-08-07T21:30:41.838Z,84.80
2022-08-07T21:33:17.771Z,84.80
2022-08-07T21:36:05.338Z,84.80
2022-08-07T21:38:49.788Z,84.70
2022-08-07T21:41:38.193Z,84.80
2022-08-07T21:44:28.447Z,84.40
2022-08-07T21:47:12.151Z,84.20
2022-08-07T21:50:01.223Z,83.90
2022-08-07T21:52:43.886Z,83.70
2022-08-07T21:55:29.838Z,83.50
2022-08-07T21:58:09.494Z,83.10
2022-08-07T22:00:44.594Z,83.20
2022-08-07T22:03:30.624Z,83.30
2022-08-07T22:06:05.235Z,83.10
2022-08-07T22:08:40.869Z,83.00
2022-08-07T22:11:17.836Z,83.00
2022-08-07T22:13:55.585Z,83.60
2022-08-07T22:16:38.798Z,84.00
2022-08-07T22:19:20.189Z,84.20
2022-08-07T22:22:20.732Z,84.30
2022-08-07T22:25:03.393Z,84.30
2022-08-07T22:28:20.197Z,84.70
2022-08-07T22:30:33.594Z,85.10
2022-08-07T22:33:09.585Z,85.30
2022-08-07T22:35:43.394Z,85.30
2022-08-07T22:38:20.555Z,85.30
2022-08-07T22:40:59.931Z,85.50
2022-08-07T22:43:38.817Z,85.50
2022-08-07T22:47:03.344Z,85.60
2022-08-07T22:49:39.664Z,85.40
2022-08-07T22:52:51.780Z,85.50
2022-08-07T22:55:34.578Z,85.60
2022-08-07T22:58:38.358Z,85.50
2022-08-07T23:01:41.959Z,85.90
2022-08-07T23:04:56.712Z,85.90
2022-08-07T23:07:42.463Z,85.90
2022-08-07T23:10:37.707Z,85.70
2022-08-07T23:13:48.736Z,85.50
2022-08-07T23:16:55.026Z,85.40
2022-08-07T23:19:52.038Z,84.80
2022-08-07T23:22:34.214Z,84.20
2022-08-07T23:25:17.708Z,83.60
2022-08-07T23:28:22.648Z,82.70
2022-08-07T23:31:13.886Z,82.20
2022-08-07T23:34:34.602Z,81.80
2022-08-07T23:37:20.091Z,81.70
2022-08-07T23:40:04.720Z,81.70
2022-08-07T23:42:53.310Z,81.70
2022-08-07T23:46:03.100Z,81.60
2022-08-07T23:48:54.236Z,81.60
2022-08-07T23:53:05.248Z,82.40
2022-08-07T23:54:43.824Z,81.40
2022-08-07T23:57:19.853Z,81.40
